createdAt,value
2019-05-30T00:00:17.581Z,100253.99
2019-05-30T00:02:42.743Z,100251.75
2019-05-30T00:05:12.335Z,100249.99
2019-05-30T00:07:41.735Z,100258.84
2019-05-30T00:10:11.255Z,100257.98
2019-05-30T00:12:41.155Z,100261.20
2019-05-30T00:15:10.876Z,100256.50
2019-05-30T00:17:40.174Z,100252.54
2019-05-30T00:20:09.975Z,100260.52
2019-05-30T00:22:39.174Z,100263.14
2019-05-30T00:25:08.774Z,100257.34
2019-05-30T00:27:37.975Z,100252.98
2019-05-30T00:30:23.118Z,100251.51
2019-05-30T00:32:38.515Z,100254.58
2019-05-30T00:35:08.334Z,100253.00
2019-05-30T00:37:37.934Z,100254.45
2019-05-30T00:40:09.494Z,100255.61
2019-05-30T00:42:38.894Z,100254.73
2019-05-30T00:45:20.450Z,100257.45
2019-05-30T00:47:39.954Z,100259.44
2019-05-30T00:50:10.274Z,100262.16
2019-05-30T00:52:39.674Z,100255.83
2019-05-30T00:55:08.970Z,100251.37
2019-05-30T00:57:38.474Z,100256.63
2019-05-30T01:00:08.586Z,100253.03
2019-05-30T01:02:37.786Z,100254.34
2019-05-30T01:05:09.015Z,100255.53
2019-05-30T01:07:38.442Z,100256.66
2019-05-30T01:10:10.299Z,100265.77
2019-05-30T01:12:39.473Z,100266.73
2019-05-30T01:15:10.434Z,100263.47
2019-05-30T01:17:39.737Z,100267.77
2019-05-30T01:20:09.855Z,100265.60
2019-05-30T01:22:39.054Z,100262.61
2019-05-30T01:25:09.161Z,100267.77
2019-05-30T01:27:38.318Z,100261.25
2019-05-30T01:30:11.156Z,100271.44
2019-05-30T01:32:40.454Z,100268.39
2019-05-30T01:35:10.156Z,100271.48
2019-05-30T01:37:39.657Z,100274.56
2019-05-30T01:40:09.576Z,100271.44
2019-05-30T01:42:39.285Z,100268.30
2019-05-30T01:45:09.717Z,100270.83
2019-05-30T01:47:39.121Z,100271.93
2019-05-30T01:50:10.357Z,100276.03
2019-05-30T01:52:40.049Z,100275.83
2019-05-30T01:55:11.111Z,100273.45
2019-05-30T01:57:40.695Z,100278.41
2019-05-30T02:00:20.607Z,100277.98
2019-05-30T02:02:46.590Z,100281.19
2019-05-30T02:05:16.752Z,100280.23
2019-05-30T02:07:45.992Z,100282.77
2019-05-30T02:10:16.034Z,100280.39
2019-05-30T02:12:45.311Z,100284.34
2019-05-30T02:15:15.954Z,100279.98
2019-05-30T02:17:45.270Z,100283.12
2019-05-30T02:20:14.955Z,100289.55
2019-05-30T02:22:44.470Z,100295.02
2019-05-30T02:25:13.989Z,100302.26
2019-05-30T02:27:43.461Z,100295.77
2019-05-30T02:30:15.052Z,100303.67
2019-05-30T02:32:44.439Z,100307.66
2019-05-30T02:35:14.034Z,100301.65
2019-05-30T02:37:43.433Z,100304.56
2019-05-30T02:40:15.265Z,100303.64
2019-05-30T02:42:44.379Z,100305.00
2019-05-30T02:45:13.991Z,100302.88
2019-05-30T02:47:43.316Z,100305.52
2019-05-30T02:50:14.265Z,100319.19
2019-05-30T02:52:43.751Z,100313.41
2019-05-30T02:55:13.790Z,100313.67
2019-05-30T02:57:43.554Z,100316.64
2019-05-30T03:00:17.006Z,100315.18
2019-05-30T03:02:44.609Z,100316.44
2019-05-30T03:05:14.966Z,100323.94
2019-05-30T03:07:45.149Z,100320.62
2019-05-30T03:10:15.700Z,100317.84
2019-05-30T03:12:45.170Z,100321.23
2019-05-30T03:15:15.740Z,100329.08
2019-05-30T03:17:45.593Z,100332.68
2019-05-30T03:23:07.686Z,100337.66
2019-05-30T03:25:36.560Z,100338.41
2019-05-30T03:28:07.571Z,100336.86
2019-05-30T03:30:38.185Z,100338.05
2019-05-30T03:33:24.372Z,100340.11
2019-05-30T03:35:42.483Z,100338.27
2019-05-30T03:38:12.797Z,100341.38
2019-05-30T03:40:41.796Z,100341.73
2019-05-30T03:43:13.202Z,100343.13
2019-05-30T03:45:44.432Z,100346.22
2019-05-30T03:48:16.460Z,100349.05
2019-05-30T03:50:48.834Z,100351.75
2019-05-30T03:53:18.510Z,100355.70
2019-05-30T03:55:50.677Z,100351.52
2019-05-30T03:58:45.474Z,100354.28
2019-05-30T04:01:26.689Z,100351.11
2019-05-30T04:04:17.604Z,100358.45
2019-05-30T04:06:54.350Z,100361.23
2019-05-30T04:09:27.224Z,100368.02
2019-05-30T04:12:23.469Z,100370.47
2019-05-30T04:14:55.492Z,100372.52
2019-05-30T04:17:25.108Z,100372.97
2019-05-30T04:19:55.126Z,100374.22
2019-05-30T04:22:24.520Z,100369.52
2019-05-30T04:24:53.829Z,100366.08
2019-05-30T04:27:23.232Z,100367.45
2019-05-30T04:29:52.749Z,100363.14
2019-05-30T04:32:22.332Z,100360.36
2019-05-30T04:34:51.607Z,100366.42
2019-05-30T04:37:21.151Z,100370.66
2019-05-30T04:39:50.471Z,100375.41
2019-05-30T04:42:20.821Z,100374.30
2019-05-30T04:44:50.464Z,100379.45
2019-05-30T04:47:20.844Z,100378.64
2019-05-30T04:49:50.948Z,100383.63
2019-05-30T04:52:24.453Z,100392.88
2019-05-30T04:54:51.869Z,100383.71
2019-05-30T04:57:26.882Z,100384.43
2019-05-30T04:59:52.830Z,100387.56
2019-05-30T05:02:23.291Z,100387.56
2019-05-30T05:04:52.874Z,100384.83
2019-05-30T05:07:22.270Z,100386.07
2019-05-30T05:09:51.475Z,100390.58
2019-05-30T05:12:22.315Z,100392.62
2019-05-30T05:14:52.111Z,100389.12
2019-05-30T05:17:22.958Z,100390.68
2019-05-30T05:19:52.428Z,100397.37
2019-05-30T05:22:23.342Z,100393.62
2019-05-30T05:24:52.708Z,100390.53
2019-05-30T05:27:23.810Z,100395.67
2019-05-30T05:29:53.549Z,100395.22
2019-05-30T05:32:24.534Z,100394.77
2019-05-30T05:34:54.070Z,100398.47
2019-05-30T05:37:23.467Z,100397.58
2019-05-30T05:39:53.108Z,100401.80
2019-05-30T05:42:23.020Z,100403.55
2019-05-30T05:44:53.549Z,100409.05
2019-05-30T05:47:23.032Z,100413.69
2019-05-30T05:49:52.557Z,100414.48
2019-05-30T05:52:22.825Z,100419.20
2019-05-30T05:54:52.597Z,100420.80
2019-05-30T05:57:22.930Z,100419.50
2019-05-30T05:59:52.509Z,100423.71
2019-05-30T06:02:23.131Z,100422.57
2019-05-30T06:04:52.831Z,100427.13
2019-05-30T06:07:22.463Z,100423.08
2019-05-30T06:09:51.939Z,100430.53
2019-05-30T06:12:21.807Z,100436.41
2019-05-30T06:14:51.030Z,100434.51
2019-05-30T06:17:21.167Z,100435.66
2019-05-30T06:19:50.793Z,100436.15
2019-05-30T06:22:21.371Z,100443.68
2019-05-30T06:24:50.912Z,100454.98
2019-05-30T06:27:20.229Z,100448.60
2019-05-30T06:29:49.437Z,100446.70
2019-05-30T06:32:18.804Z,100452.41
2019-05-30T06:34:48.230Z,100457.25
2019-05-30T06:37:19.093Z,100463.66
2019-05-30T06:39:48.846Z,100461.05
2019-05-30T06:42:19.500Z,100462.33
2019-05-30T06:44:49.109Z,100464.00
2019-05-30T06:47:18.387Z,100466.61
2019-05-30T06:49:47.686Z,100471.58
2019-05-30T06:52:17.154Z,100475.71
2019-05-30T06:54:46.509Z,100477.45
2019-05-30T06:57:15.790Z,100477.47
2019-05-30T06:59:45.109Z,100475.80
2019-05-30T07:02:14.277Z,100482.09
2019-05-30T07:04:51.475Z,100479.09
2019-05-30T07:07:15.110Z,100478.74
2019-05-30T07:09:44.529Z,100478.56
2019-05-30T07:12:13.944Z,100480.48
2019-05-30T07:14:43.450Z,100483.91
2019-05-30T07:17:12.869Z,100486.78
2019-05-30T07:19:42.469Z,100479.73
2019-05-30T07:22:11.740Z,100481.70
2019-05-30T07:24:41.669Z,100475.84
2019-05-30T07:27:11.068Z,100484.59
2019-05-30T07:29:40.249Z,100474.20
2019-05-30T07:32:13.273Z,100483.02
2019-05-30T07:34:41.230Z,100480.69
2019-05-30T07:37:10.309Z,100475.66
2019-05-30T07:39:39.711Z,100475.22
2019-05-30T07:42:08.907Z,100478.75
2019-05-30T07:44:38.228Z,100477.66
2019-05-30T07:47:07.724Z,100471.75
2019-05-30T07:49:37.150Z,100475.73
2019-05-30T07:52:06.629Z,100470.58
2019-05-30T07:54:36.024Z,100483.92
2019-05-30T07:57:05.748Z,100485.17
2019-05-30T07:59:35.028Z,100479.98
2019-05-30T08:02:04.578Z,100480.70
2019-05-30T08:04:34.213Z,100473.63
2019-05-30T08:07:03.553Z,100479.14
2019-05-30T08:09:32.990Z,100482.09
2019-05-30T08:12:02.269Z,100482.33
2019-05-30T08:14:31.548Z,100476.19
2019-05-30T08:17:00.748Z,100471.14
2019-05-30T08:19:30.355Z,100465.36
2019-05-30T08:21:59.627Z,100466.66
2019-05-30T08:24:30.170Z,100466.91
2019-05-30T08:26:59.589Z,100468.47
2019-05-30T08:29:29.928Z,100464.53
2019-05-30T08:31:59.507Z,100465.97
2019-05-30T08:34:28.691Z,100458.42
2019-05-30T08:36:58.109Z,100464.57
2019-05-30T08:39:28.881Z,100472.67
2019-05-30T08:41:58.469Z,100462.59
2019-05-30T08:44:29.315Z,100467.19
2019-05-30T08:46:58.588Z,100462.27
2019-05-30T08:49:27.871Z,100460.58
2019-05-30T08:51:57.390Z,100461.83
2019-05-30T08:54:26.670Z,100455.73
2019-05-30T08:56:55.990Z,100460.20
2019-05-30T08:59:25.518Z,100453.89
2019-05-30T09:01:54.792Z,100458.00
2019-05-30T09:04:24.191Z,100463.87
2019-05-30T09:06:53.394Z,100464.08
2019-05-30T09:09:22.778Z,100458.17
2019-05-30T09:11:52.189Z,100459.35
2019-05-30T09:14:22.709Z,100447.22
2019-05-30T09:16:53.014Z,100447.29
2019-05-30T09:19:22.732Z,100453.29
2019-05-30T09:21:51.952Z,100455.22
2019-05-30T09:24:21.470Z,100456.26
2019-05-30T09:26:51.150Z,100462.22
2019-05-30T09:29:20.630Z,100460.50
2019-05-30T09:31:50.114Z,100460.98
2019-05-30T09:34:19.351Z,100461.42
2019-05-30T09:36:49.126Z,100454.40
2019-05-30T09:39:18.668Z,100452.84
2019-05-30T09:41:47.989Z,100454.84
2019-05-30T09:44:17.565Z,100452.09
2019-05-30T09:46:48.443Z,100449.64
2019-05-30T09:49:17.828Z,100456.10
2019-05-30T09:51:47.208Z,100447.25
2019-05-30T09:54:16.507Z,100453.72
2019-05-30T09:56:46.547Z,100450.27
2019-05-30T09:59:16.236Z,100446.36
2019-05-30T10:01:46.029Z,100445.23
2019-05-30T10:04:15.399Z,100443.08
2019-05-30T10:06:44.848Z,100440.34
2019-05-30T10:09:14.351Z,100444.69
2019-05-30T10:11:44.497Z,100441.21
2019-05-30T10:14:15.028Z,100443.57
2019-05-30T10:16:49.938Z,100452.20
2019-05-30T10:19:15.371Z,100442.48
2019-05-30T10:21:45.990Z,100436.52
2019-05-30T10:24:16.150Z,100451.89
2019-05-30T10:26:47.124Z,100454.42
2019-05-30T10:29:16.549Z,100445.48
2019-05-30T10:31:46.510Z,100449.39
2019-05-30T10:34:16.229Z,100443.15
2019-05-30T10:36:46.276Z,100439.20
2019-05-30T10:39:17.309Z,100437.30
2019-05-30T10:41:47.596Z,100436.61
2019-05-30T10:44:17.203Z,100441.31
2019-05-30T10:46:48.605Z,100443.64
2019-05-30T10:49:31.531Z,100440.00
2019-05-30T10:51:49.634Z,100430.86
2019-05-30T10:54:19.109Z,100429.53
2019-05-30T10:56:49.867Z,100431.63
2019-05-30T10:59:19.309Z,100424.27
2019-05-30T11:01:50.231Z,100431.55
2019-05-30T11:04:20.468Z,100428.20
2019-05-30T11:07:07.611Z,100424.13
2019-05-30T11:09:28.870Z,100426.41
2019-05-30T11:11:58.391Z,100419.01
2019-05-30T11:14:27.909Z,100414.27
2019-05-30T11:16:57.807Z,100412.90
2019-05-30T11:19:27.228Z,100413.89
2019-05-30T11:21:56.564Z,100412.48
2019-05-30T11:24:26.029Z,100410.80
2019-05-30T11:26:55.963Z,100404.30
2019-05-30T11:29:26.351Z,100411.50
2019-05-30T11:31:56.943Z,100412.63
2019-05-30T11:34:26.489Z,100403.76
2019-05-30T11:36:55.795Z,100406.87
2019-05-30T11:39:25.166Z,100400.71
2019-05-30T11:41:55.318Z,100394.18
2019-05-30T11:44:24.830Z,100397.77
2019-05-30T11:46:55.600Z,100388.21
2019-05-30T11:49:24.921Z,100402.64
2019-05-30T11:51:54.320Z,100390.36
2019-05-30T11:54:23.949Z,100391.59
2019-05-30T11:56:54.000Z,100394.34
2019-05-30T11:59:23.467Z,100388.08
2019-05-30T12:01:54.579Z,100382.23
2019-05-30T12:04:24.116Z,100379.11
2019-05-30T12:06:54.561Z,100377.77
2019-05-30T12:09:24.549Z,100377.66
2019-05-30T12:11:55.157Z,100367.86
2019-05-30T12:14:24.788Z,100368.06
2019-05-30T12:16:55.211Z,100366.73
2019-05-30T12:19:24.950Z,100368.42
2019-05-30T12:21:55.539Z,100360.10
2019-05-30T12:24:25.069Z,100360.42
2019-05-30T12:26:54.470Z,100361.77
2019-05-30T12:29:23.629Z,100357.84
2019-05-30T12:31:56.120Z,100358.72
2019-05-30T12:34:23.991Z,100353.74
2019-05-30T12:36:54.287Z,100362.59
2019-05-30T12:39:23.950Z,100356.77
2019-05-30T12:41:54.818Z,100353.47
2019-05-30T12:44:24.796Z,100351.02
2019-05-30T12:46:55.472Z,100348.62
2019-05-30T12:49:25.230Z,100357.02
2019-05-30T12:51:54.828Z,100345.25
2019-05-30T12:54:24.323Z,100351.35
2019-05-30T12:56:54.556Z,100349.78
2019-05-30T12:59:23.949Z,100341.59
2019-05-30T13:01:54.676Z,100343.91
2019-05-30T13:04:24.190Z,100341.52
2019-05-30T13:06:54.765Z,100344.13
2019-05-30T13:09:24.725Z,100342.86
2019-05-30T13:11:54.266Z,100344.58
2019-05-30T13:14:23.750Z,100345.63
2019-05-30T13:16:53.169Z,100340.36
2019-05-30T13:19:22.445Z,100336.05
2019-05-30T13:21:53.882Z,100339.45
2019-05-30T13:24:22.789Z,100337.96
2019-05-30T13:26:52.189Z,100344.52
2019-05-30T13:29:21.512Z,100344.20
2019-05-30T13:31:50.789Z,100342.66
2019-05-30T13:34:20.185Z,100334.19
2019-05-30T13:36:49.590Z,100334.22
2019-05-30T13:39:18.789Z,100334.91
2019-05-30T13:41:48.189Z,100343.23
2019-05-30T13:44:17.509Z,100336.14
2019-05-30T13:46:46.776Z,100332.49
2019-05-30T13:49:16.076Z,100324.45
2019-05-30T13:51:45.524Z,100323.80
2019-05-30T13:54:15.069Z,100327.73
2019-05-30T13:56:44.536Z,100322.10
2019-05-30T13:59:13.989Z,100328.09
2019-05-30T14:01:43.403Z,100321.70
2019-05-30T14:04:15.269Z,100330.81
2019-05-30T14:06:44.509Z,100325.52
2019-05-30T14:09:14.030Z,100317.11
2019-05-30T14:11:43.468Z,100329.06
2019-05-30T14:14:13.189Z,100325.25
2019-05-30T14:16:43.461Z,100325.52
2019-05-30T14:19:13.082Z,100325.96
2019-05-30T14:21:42.487Z,100328.28
2019-05-30T14:24:11.873Z,100330.53
2019-05-30T14:26:41.113Z,100337.08
2019-05-30T14:29:10.190Z,100338.57
2019-05-30T14:31:39.976Z,100329.79
2019-05-30T14:34:10.215Z,100329.73
2019-05-30T14:36:40.149Z,100339.84
2019-05-30T14:39:09.548Z,100342.80
2019-05-30T14:41:39.281Z,100333.12
2019-05-30T14:44:09.049Z,100333.75
2019-05-30T14:46:38.569Z,100330.97
2019-05-30T14:49:08.613Z,100329.52
2019-05-30T14:51:40.638Z,100331.69
2019-05-30T14:54:11.170Z,100329.52
2019-05-30T14:56:40.884Z,100321.95
2019-05-30T14:59:11.074Z,100331.48
2019-05-30T15:01:40.507Z,100318.45
2019-05-30T15:04:11.248Z,100321.87
2019-05-30T15:06:40.958Z,100317.09
2019-05-30T15:09:21.077Z,100314.80
2019-05-30T15:11:42.037Z,100323.78
2019-05-30T15:14:11.402Z,100321.45
2019-05-30T15:16:41.427Z,100321.20
2019-05-30T15:19:10.818Z,100318.62
2019-05-30T15:21:40.157Z,100324.44
2019-05-30T15:24:09.857Z,100315.63
2019-05-30T15:26:39.012Z,100319.36
2019-05-30T15:29:08.443Z,100321.43
2019-05-30T15:31:37.748Z,100318.27
2019-05-30T15:34:08.376Z,100319.92
2019-05-30T15:36:38.185Z,100320.00
2019-05-30T15:39:08.966Z,100320.34
2019-05-30T15:41:38.108Z,100318.30
2019-05-30T15:44:07.708Z,100322.06
2019-05-30T15:46:37.237Z,100325.41
2019-05-30T15:49:06.709Z,100319.63
2019-05-30T15:51:36.038Z,100320.23
2019-05-30T15:54:05.309Z,100314.27
2019-05-30T15:56:34.707Z,100316.16
2019-05-30T15:59:04.109Z,100312.59
2019-05-30T16:01:33.641Z,100311.02
2019-05-30T16:04:02.949Z,100315.40
2019-05-30T16:06:32.556Z,100309.38
2019-05-30T16:09:02.153Z,100315.23
2019-05-30T16:11:31.665Z,100306.28
2019-05-30T16:14:01.040Z,100305.85
2019-05-30T16:16:39.442Z,100308.59
2019-05-30T16:19:15.092Z,100309.75
2019-05-30T16:21:32.836Z,100312.36
2019-05-30T16:24:02.347Z,100306.49
2019-05-30T16:26:31.724Z,100301.46
2019-05-30T16:29:01.089Z,100301.94
2019-05-30T16:31:30.532Z,100303.42
2019-05-30T16:34:00.037Z,100304.81
2019-05-30T16:36:29.516Z,100300.35
2019-05-30T16:38:58.956Z,100300.20
2019-05-30T16:41:28.349Z,100305.13
2019-05-30T16:43:57.758Z,100302.53
2019-05-30T16:46:26.949Z,100308.25
2019-05-30T16:48:56.267Z,100302.41
2019-05-30T16:51:25.429Z,100310.25
2019-05-30T16:53:54.747Z,100304.27
2019-05-30T16:56:24.085Z,100301.92
2019-05-30T16:58:53.268Z,100300.98
2019-05-30T17:01:23.989Z,100304.18
2019-05-30T17:03:53.993Z,100295.55
2019-05-30T17:06:23.394Z,100293.88
2019-05-30T17:08:53.110Z,100294.87
2019-05-30T17:11:23.469Z,100299.55
2019-05-30T17:13:53.038Z,100289.30
2019-05-30T17:16:22.442Z,100292.09
2019-05-30T17:18:51.949Z,100292.62
2019-05-30T17:21:21.575Z,100293.32
2019-05-30T17:23:52.171Z,100294.36
2019-05-30T17:26:21.467Z,100299.45
2019-05-30T17:28:50.997Z,100297.91
2019-05-30T17:31:21.627Z,100295.95
2019-05-30T17:33:51.437Z,100302.65
2019-05-30T17:36:22.076Z,100306.59
2019-05-30T17:38:51.597Z,100304.16
2019-05-30T17:41:22.647Z,100310.23
2019-05-30T17:43:52.668Z,100311.65
2019-05-30T17:46:23.227Z,100296.68
2019-05-30T17:48:52.757Z,100299.20
2019-05-30T17:51:22.051Z,100297.64
2019-05-30T17:53:51.669Z,100300.09
2019-05-30T17:56:22.051Z,100295.79
2019-05-30T17:58:51.474Z,100296.62
2019-05-30T18:01:22.272Z,100297.51
2019-05-30T18:03:52.111Z,100304.39
2019-05-30T18:06:22.289Z,100301.70
2019-05-30T18:08:51.759Z,100302.76
2019-05-30T18:11:21.042Z,100301.64
2019-05-30T18:13:50.350Z,100299.09
2019-05-30T18:16:20.996Z,100303.94
2019-05-30T18:18:50.797Z,100304.28
2019-05-30T18:21:21.228Z,100298.52
2019-05-30T18:23:50.714Z,100305.27
2019-05-30T18:26:21.377Z,100301.23
2019-05-30T18:28:50.877Z,100312.38
2019-05-30T18:31:20.277Z,100306.09
2019-05-30T18:33:49.669Z,100308.06
2019-05-30T18:36:19.269Z,100310.34
2019-05-30T18:38:48.593Z,100310.34
2019-05-30T18:41:17.724Z,100308.97
2019-05-30T18:43:47.146Z,100310.73
2019-05-30T18:46:16.678Z,100313.46
2019-05-30T18:48:46.194Z,100308.36
2019-05-30T18:51:15.675Z,100311.98
2019-05-30T18:53:45.149Z,100316.84
2019-05-30T18:56:14.681Z,100319.58
2019-05-30T18:58:44.181Z,100320.44
2019-05-30T19:01:13.483Z,100328.73
2019-05-30T19:03:42.989Z,100327.63
2019-05-30T19:06:12.508Z,100324.00
2019-05-30T19:08:41.994Z,100333.39
2019-05-30T19:11:26.634Z,100331.18
2019-05-30T19:13:42.357Z,100336.25
2019-05-30T19:16:11.843Z,100335.19
2019-05-30T19:18:41.245Z,100340.59
2019-05-30T19:21:10.644Z,100348.09
2019-05-30T19:23:39.928Z,100346.00
2019-05-30T19:26:09.469Z,100339.42
2019-05-30T19:28:38.949Z,100346.28
2019-05-30T19:31:08.247Z,100354.51
2019-05-30T19:33:37.557Z,100348.78
2019-05-30T19:36:07.078Z,100350.35
2019-05-30T19:38:37.616Z,100348.34
2019-05-30T19:41:07.307Z,100358.08
2019-05-30T19:43:37.952Z,100357.70
2019-05-30T19:46:08.077Z,100357.10
2019-05-30T19:48:38.540Z,100356.36
2019-05-30T19:51:08.197Z,100360.99
2019-05-30T19:53:37.474Z,100360.36
2019-05-30T19:56:06.997Z,100361.34
2019-05-30T19:58:37.680Z,100359.00
2019-05-30T20:01:07.558Z,100360.22
2019-05-30T20:03:43.583Z,100360.48
2019-05-30T20:06:08.070Z,100365.87
2019-05-30T20:08:52.621Z,100361.34
2019-05-30T20:11:08.609Z,100358.67
2019-05-30T20:13:39.097Z,100355.20
2019-05-30T20:16:08.877Z,100358.86
2019-05-30T20:18:38.350Z,100354.77
2019-05-30T20:21:07.873Z,100366.39
2019-05-30T20:23:50.424Z,100360.95
2019-05-30T20:26:08.309Z,100356.95
2019-05-30T20:28:38.607Z,100359.51
2019-05-30T20:31:08.357Z,100362.23
2019-05-30T20:33:38.394Z,100370.39
2019-05-30T20:36:08.796Z,100366.01
2019-05-30T20:38:38.693Z,100365.45
2019-05-30T20:41:08.186Z,100371.47
2019-05-30T20:43:37.529Z,100374.81
2019-05-30T20:46:20.318Z,100379.02
2019-05-30T20:48:40.691Z,100376.95
2019-05-30T20:51:20.829Z,100379.44
2019-05-30T20:53:41.239Z,100383.01
2019-05-30T20:56:10.948Z,100382.48
2019-05-30T20:58:40.146Z,100388.48
2019-05-30T21:01:09.676Z,100389.30
2019-05-30T21:03:39.662Z,100384.48
2019-05-30T21:06:09.397Z,100383.45
2019-05-30T21:08:39.189Z,100387.28
2019-05-30T21:11:11.157Z,100385.41
2019-05-30T21:13:42.290Z,100387.26
2019-05-30T21:16:13.836Z,100384.99
2019-05-30T21:18:46.218Z,100390.04
2019-05-30T21:21:15.789Z,100386.05
2019-05-30T21:23:45.019Z,100392.11
2019-05-30T21:26:15.036Z,100389.73
2019-05-30T21:28:45.423Z,100389.47
2019-05-30T21:31:14.771Z,100388.36
2019-05-30T21:33:45.437Z,100389.31
2019-05-30T21:36:15.027Z,100385.13
2019-05-30T21:38:44.423Z,100385.99
2019-05-30T21:41:13.909Z,100390.89
2019-05-30T21:43:43.109Z,100396.23
2019-05-30T21:46:12.309Z,100393.92
2019-05-30T21:48:42.825Z,100391.86
2019-05-30T21:51:12.398Z,100398.02
2019-05-30T21:53:41.629Z,100403.18
2019-05-30T21:56:12.919Z,100402.13
2019-05-30T21:58:42.196Z,100402.62
2019-05-30T22:01:20.716Z,100400.40
2019-05-30T22:03:51.428Z,100406.13
2019-05-30T22:06:20.949Z,100407.17
2019-05-30T22:08:51.550Z,100401.22
2019-05-30T22:11:21.554Z,100402.41
2019-05-30T22:13:51.945Z,100400.66
2019-05-30T22:16:21.591Z,100399.41
2019-05-30T22:18:52.131Z,100404.98
2019-05-30T22:21:21.867Z,100396.85
2019-05-30T22:23:52.409Z,100407.84
2019-05-30T22:26:22.189Z,100404.09
2019-05-30T22:28:52.670Z,100404.58
2019-05-30T22:31:21.912Z,100407.39
2019-05-30T22:33:51.757Z,100414.50
2019-05-30T22:36:22.566Z,100406.33
2019-05-30T22:38:52.867Z,100408.72
2019-05-30T22:41:22.597Z,100406.39
2019-05-30T22:43:52.936Z,100416.35
2019-05-30T22:46:22.393Z,100403.95
2019-05-30T22:48:52.908Z,100408.92
2019-05-30T22:51:22.472Z,100405.21
2019-05-30T22:53:53.103Z,100404.96
2019-05-30T22:56:22.683Z,100406.23
2019-05-30T22:58:51.994Z,100408.53
2019-05-30T23:01:21.509Z,100410.86
2019-05-30T23:03:52.177Z,100417.98
2019-05-30T23:06:21.627Z,100418.98
2019-05-30T23:08:50.827Z,100422.11
2019-05-30T23:11:20.011Z,100421.20
2019-05-30T23:13:49.968Z,100415.09
2019-05-30T23:16:19.548Z,100409.30
2019-05-30T23:18:48.765Z,100412.48
2019-05-30T23:21:18.347Z,100409.97
2019-05-30T23:23:48.724Z,100408.89
2019-05-30T23:26:18.148Z,100408.72
2019-05-30T23:28:47.669Z,100404.28
2019-05-30T23:31:17.189Z,100407.11
2019-05-30T23:33:46.549Z,100405.09
2019-05-30T23:36:15.981Z,100402.42
2019-05-30T23:38:45.509Z,100407.45
2019-05-30T23:41:15.109Z,100405.39
2019-05-30T23:43:55.840Z,100405.66
2019-05-30T23:46:15.355Z,100407.57
2019-05-30T23:48:45.070Z,100406.58
2019-05-30T23:51:14.549Z,100406.98
2019-05-30T23:53:43.750Z,100405.59
2019-05-30T23:56:12.915Z,100400.31
2019-05-30T23:58:42.550Z,100393.09
